Time;durP1;ratioP1;P1;durP2;ratioP2;P2;SDS_P1;SDS_P2;PMS_P1;PMS_P2;Temp;Humidity;BMP_temperature;BMP_pressure;BME280_temperature;BME280_humidity;BME280_pressure;Samples;Min_cycle;Max_cycle;Signal;HPM_P1;HPM_P2
2023/04/10 00:01:46;;;;;;;74.30;35.70;;;;;;;6.62;96.53;101239.94;110404;1268;22234;-56
2023/04/10 00:04:17;;;;;;;81.40;36.70;;;;;;;6.59;96.42;101234.13;110427;1273;23002;-55
2023/04/10 00:06:48;;;;;;;73.10;32.80;;;;;;;6.56;96.56;101231.36;110418;1270;22213;-57
2023/04/10 00:09:19;;;;;;;67.80;34.70;;;;;;;6.52;96.64;101230.08;110438;1261;22237;-57
2023/04/10 00:11:49;;;;;;;65.10;32.20;;;;;;;6.51;96.71;101233.37;110464;1276;22242;-54
2023/04/10 00:14:22;;;;;;;71.70;35.60;;;;;;;6.49;96.61;101228.00;110432;1270;23050;-55
2023/04/10 00:16:52;;;;;;;63.90;34.40;;;;;;;6.48;96.60;101228.34;110419;1270;22942;-57
2023/04/10 00:19:23;;;;;;;67.60;30.40;;;;;;;6.46;96.34;101226.73;110417;1266;22368;-58
2023/04/10 00:21:55;;;;;;;66.40;33.10;;;;;;;6.45;96.37;101223.58;110384;1270;22265;-56
2023/04/10 00:24:26;;;;;;;71.20;34.00;;;;;;;6.41;96.09;101221.04;110385;1261;22224;-57
2023/04/10 00:26:57;;;;;;;69.70;32.60;;;;;;;6.37;95.96;101221.11;110396;1269;23237;-57
2023/04/10 00:29:28;;;;;;;72.30;34.40;;;;;;;6.33;96.02;101215.27;110443;1269;22359;-57
2023/04/10 00:31:59;;;;;;;74.10;36.00;;;;;;;6.28;95.82;101216.00;110384;1266;22997;-57
2023/04/10 00:34:30;;;;;;;64.40;34.60;;;;;;;6.26;95.95;101216.99;110388;1270;22380;-57
2023/04/10 00:37:01;;;;;;;72.30;35.60;;;;;;;6.24;95.97;101222.48;110398;1261;22224;-55
2023/04/10 00:39:32;;;;;;;90.70;44.90;;;;;;;6.19;95.77;101226.30;110419;1261;22313;-57
2023/04/10 00:42:08;;;;;;;103.80;46.60;;;;;;;6.14;95.90;101223.23;110381;1270;23676;-57
2023/04/10 00:44:40;;;;;;;83.50;41.70;;;;;;;6.09;95.95;101228.80;110389;1276;22244;-55
2023/04/10 00:47:12;;;;;;;88.00;39.00;;;;;;;6.08;96.08;101223.13;110366;1270;22214;-57
2023/04/10 00:49:43;;;;;;;77.80;38.30;;;;;;;6.05;96.18;101223.80;110425;1266;22173;-58
2023/04/10 00:52:14;;;;;;;72.60;36.50;;;;;;;6.03;96.20;101219.65;110313;1269;23039;-55
2023/04/10 00:54:45;;;;;;;83.70;37.40;;;;;;;6.02;96.32;101220.38;110377;1266;22173;-57
2023/04/10 00:57:17;;;;;;;78.90;35.30;;;;;;;5.99;96.52;101217.58;110395;1260;23081;-55
2023/04/10 00:59:50;;;;;;;86.50;37.00;;;;;;;5.98;96.53;101220.44;110407;1276;22189;-55
2023/04/10 01:02:21;;;;;;;85.00;36.40;;;;;;;5.94;96.55;101221.39;110375;1270;22915;-57
2023/04/10 01:04:53;;;;;;;88.90;38.30;;;;;;;5.91;96.74;101222.16;110384;1269;22426;-55
2023/04/10 01:07:35;;;;;;;73.30;37.40;;;;;;;5.91;96.82;101225.42;110419;1269;22202;-55
2023/04/10 01:10:15;;;;;;;78.00;36.20;;;;;;;5.90;96.84;101219.65;110386;1266;22268;-57
2023/04/10 01:13:04;;;;;;;92.00;35.70;;;;;;;5.91;97.04;101223.05;110380;1266;22050;-54
2023/04/10 01:15:43;;;;;;;77.60;34.30;;;;;;;5.89;97.11;101223.94;110394;1266;22331;-57
2023/04/10 01:18:21;;;;;;;66.80;32.70;;;;;;;5.89;97.17;101222.60;110404;1269;22421;-56
2023/04/10 01:20:52;;;;;;;72.30;32.80;;;;;;;5.90;97.37;101226.08;110405;1260;22306;-57
2023/04/10 01:23:41;;;;;;;67.10;33.30;;;;;;;5.91;97.59;101227.87;110450;1272;22205;-55
2023/04/10 01:26:16;;;;;;;72.30;35.00;;;;;;;5.92;97.51;101230.23;110393;1272;22316;-57
2023/04/10 01:28:59;;;;;;;81.10;37.50;;;;;;;5.93;97.55;101224.75;110401;1260;22335;-56
2023/04/10 01:31:36;;;;;;;73.40;34.60;;;;;;;5.94;97.60;101225.05;110403;1266;22144;-57
2023/04/10 01:34:15;;;;;;;78.00;34.50;;;;;;;5.94;97.76;101223.38;110458;1260;22369;-58
2023/04/10 01:36:53;;;;;;;75.10;32.90;;;;;;;5.96;97.81;101224.29;110406;1268;22159;-56
2023/04/10 01:39:27;;;;;;;99.80;32.10;;;;;;;5.98;97.86;101228.60;110411;1270;23220;-57
2023/04/10 01:42:00;;;;;;;99.90;34.70;;;;;;;5.99;97.95;101223.92;110382;1268;22960;-57
2023/04/10 01:44:32;;;;;;;94.00;32.00;;;;;;;6.00;98.14;101226.77;110416;1269;22397;-56
2023/04/10 01:47:05;;;;;;;101.80;36.40;;;;;;;6.00;98.20;101222.95;110418;1261;22208;-57
2023/04/10 01:49:41;;;;;;;99.30;33.80;;;;;;;6.02;98.28;101221.80;110373;1274;22198;-57
2023/04/10 01:52:13;;;;;;;115.20;33.80;;;;;;;6.03;98.36;101220.29;110402;1269;22177;-55
2023/04/10 01:54:47;;;;;;;106.50;35.20;;;;;;;6.04;98.33;101220.42;110366;1269;22213;-58
2023/04/10 01:57:19;;;;;;;97.20;33.60;;;;;;;6.06;98.42;101222.84;110362;1269;22345;-54
2023/04/10 01:59:51;;;;;;;133.90;34.50;;;;;;;6.07;98.51;101225.34;106663;1275;25518;-54
2023/04/10 02:02:21;;;;;;;118.40;35.90;;;;;;;6.04;98.38;101227.70;106371;1275;22521;-54
2023/04/10 02:04:52;;;;;;;133.90;36.10;;;;;;;6.02;98.69;101232.89;106372;1257;22530;-56
2023/04/10 02:07:30;;;;;;;133.40;35.40;;;;;;;6.03;98.86;101232.02;106333;1275;22543;-54
2023/04/10 02:10:08;;;;;;;139.30;35.50;;;;;;;6.02;98.99;101231.80;110367;1260;22390;-57
2023/04/10 02:12:44;;;;;;;109.60;33.90;;;;;;;6.00;99.07;101232.84;110381;1275;23051;-56
2023/04/10 02:15:18;;;;;;;120.40;32.50;;;;;;;6.00;99.05;101232.45;110316;1269;22304;-54
2023/04/10 02:17:51;;;;;;;119.40;32.30;;;;;;;6.00;99.14;101231.04;110409;1269;22138;-57
2023/04/10 02:20:23;;;;;;;117.50;30.60;;;;;;;5.99;99.08;101228.52;110379;1269;22131;-57
2023/04/10 02:22:56;;;;;;;99.40;30.90;;;;;;;5.96;99.21;101223.90;110399;1269;22273;-55
2023/04/10 02:25:26;;;;;;;88.20;32.40;;;;;;;5.97;99.30;101229.10;110393;1268;22228;-54
2023/04/10 02:27:57;;;;;;;110.90;32.00;;;;;;;5.98;99.23;101228.54;110392;1268;22196;-55
2023/04/10 02:30:29;;;;;;;91.00;32.10;;;;;;;5.98;99.26;101228.46;110396;1269;23428;-58
2023/04/10 02:33:00;;;;;;;102.20;33.70;;;;;;;5.97;99.32;101228.95;110409;1269;22165;-57
2023/04/10 02:35:30;;;;;;;63.10;30.50;;;;;;;5.97;99.37;101227.60;110414;1269;22343;-56
2023/04/10 02:38:01;;;;;;;92.00;30.40;;;;;;;5.97;99.33;101230.46;110411;1265;22206;-56
2023/04/10 02:40:32;;;;;;;74.30;28.90;;;;;;;6.00;99.41;101227.17;110417;1268;22324;-57
2023/04/10 02:43:03;;;;;;;97.10;33.60;;;;;;;6.00;99.39;101227.52;110373;1268;22296;-54
2023/04/10 02:45:34;;;;;;;71.90;32.20;;;;;;;6.01;99.52;101230.69;110403;1264;22426;-58
2023/04/10 02:48:06;;;;;;;90.50;32.20;;;;;;;6.02;99.54;101230.36;110417;1261;23644;-56
2023/04/10 02:50:37;;;;;;;60.30;29.90;;;;;;;6.03;99.51;101231.21;110391;1268;22381;-54
2023/04/10 02:53:08;;;;;;;62.90;30.60;;;;;;;6.05;99.40;101234.34;110399;1266;22278;-58
2023/04/10 02:55:39;;;;;;;85.20;30.20;;;;;;;6.07;99.53;101234.30;110434;1269;22148;-54
2023/04/10 02:58:10;;;;;;;67.50;30.60;;;;;;;6.08;99.60;101235.00;110414;1273;22902;-56
2023/04/10 03:00:41;;;;;;;66.70;30.20;;;;;;;6.05;99.39;101234.89;110398;1269;23452;-59
2023/04/10 03:03:12;;;;;;;61.30;30.60;;;;;;;6.06;99.27;101234.88;110378;1268;22795;-55
2023/04/10 03:05:43;;;;;;;56.60;27.40;;;;;;;6.08;99.34;101231.75;110472;1269;23080;-58
2023/04/10 03:08:13;;;;;;;65.10;29.40;;;;;;;6.09;99.20;101234.27;110432;1269;23032;-56
2023/04/10 03:10:47;;;;;;;69.40;30.00;;;;;;;6.09;99.36;101230.70;110385;1268;22869;-57
2023/04/10 03:13:18;;;;;;;61.40;29.80;;;;;;;6.08;99.38;101231.44;110383;1269;22967;-57
2023/04/10 03:15:49;;;;;;;59.00;27.80;;;;;;;6.07;99.39;101230.82;110395;1268;23060;-56
2023/04/10 03:18:20;;;;;;;67.80;29.20;;;;;;;6.08;99.57;101230.73;110412;1268;23085;-57
2023/04/10 03:20:50;;;;;;;68.70;30.00;;;;;;;6.08;99.60;101232.06;110449;1271;23031;-56
2023/04/10 03:23:22;;;;;;;66.10;30.50;;;;;;;6.09;99.66;101229.75;110442;1269;22377;-58
2023/04/10 03:25:53;;;;;;;72.80;31.00;;;;;;;6.10;99.72;101228.39;110418;1269;22234;-57
2023/04/10 03:28:24;;;;;;;62.60;29.60;;;;;;;6.11;99.77;101227.98;110439;1261;22173;-56
2023/04/10 03:30:55;;;;;;;73.00;30.50;;;;;;;6.12;99.79;101225.42;110420;1269;22375;-58
2023/04/10 03:33:26;;;;;;;68.30;29.50;;;;;;;6.11;99.70;101224.89;110386;1261;22148;-57
2023/04/10 03:35:57;;;;;;;64.90;29.20;;;;;;;6.10;99.84;101221.50;109465;1268;24241;-56
2023/04/10 03:38:29;;;;;;;69.90;31.30;;;;;;;6.08;99.77;101222.64;106649;1269;22632;-57
2023/04/10 03:40:59;;;;;;;82.80;33.00;;;;;;;6.06;99.76;101223.48;108237;1268;23895;-58
2023/04/10 03:43:31;;;;;;;76.40;31.90;;;;;;;6.01;99.70;101225.54;106685;1265;22542;-56
2023/04/10 03:46:01;;;;;;;65.10;31.70;;;;;;;6.01;99.92;101221.58;106597;1268;26236;-57
2023/04/10 03:48:33;;;;;;;70.70;32.90;;;;;;;6.01;99.98;101220.64;106408;1262;22520;-59
2023/04/10 03:51:04;;;;;;;66.10;32.10;;;;;;;6.02;100.00;101222.27;106541;1275;24218;-57
2023/04/10 03:53:35;;;;;;;65.10;31.60;;;;;;;6.05;100.00;101219.77;106621;1269;22648;-58
2023/04/10 03:56:07;;;;;;;70.60;33.70;;;;;;;6.06;100.00;101226.15;106409;1275;25501;-58
2023/04/10 03:58:38;;;;;;;69.90;32.30;;;;;;;6.06;100.00;101231.23;110360;1273;22399;-59
2023/04/10 04:01:09;;;;;;;79.00;35.80;;;;;;;6.07;100.00;101232.80;110409;1268;22230;-58
2023/04/10 04:03:40;;;;;;;74.70;35.70;;;;;;;6.07;100.00;101233.98;110371;1268;22436;-60
2023/04/10 04:06:11;;;;;;;80.00;35.80;;;;;;;6.08;100.00;101232.95;110401;1269;22213;-60
2023/04/10 04:08:42;;;;;;;76.60;34.00;;;;;;;6.09;100.00;101233.80;110410;1269;22210;-59
2023/04/10 04:11:12;;;;;;;71.50;35.40;;;;;;;6.09;100.00;101234.50;110373;1262;23119;-58
2023/04/10 04:13:43;;;;;;;77.00;35.30;;;;;;;6.12;100.00;101229.06;110387;1268;22169;-60
2023/04/10 04:16:14;;;;;;;78.90;35.80;;;;;;;6.15;100.00;101224.33;110416;1269;22912;-56
2023/04/10 04:18:45;;;;;;;76.20;34.10;;;;;;;6.18;100.00;101227.45;110386;1268;22299;-58
2023/04/10 04:21:16;;;;;;;88.60;34.40;;;;;;;6.18;100.00;101226.33;110381;1267;22532;-60
2023/04/10 04:23:47;;;;;;;80.10;35.30;;;;;;;6.19;100.00;101227.90;110400;1275;22230;-59
2023/04/10 04:26:18;;;;;;;79.10;33.70;;;;;;;6.16;100.00;101228.20;110401;1261;22216;-59
2023/04/10 04:28:48;;;;;;;73.90;33.50;;;;;;;6.14;100.00;101230.14;110365;1269;22158;-60
2023/04/10 04:31:19;;;;;;;70.30;32.00;;;;;;;6.11;100.00;101232.31;110409;1261;22203;-58
2023/04/10 04:33:50;;;;;;;75.30;32.20;;;;;;;6.12;100.00;101232.08;110403;1260;22250;-60
2023/04/10 04:36:21;;;;;;;77.40;33.10;;;;;;;6.12;100.00;101236.91;110405;1268;22130;-60
2023/04/10 04:38:52;;;;;;;81.00;33.30;;;;;;;6.12;100.00;101237.23;110423;1270;23265;-60
2023/04/10 04:41:22;;;;;;;73.80;31.70;;;;;;;6.08;100.00;101242.36;110407;1270;22196;-60
2023/04/10 04:43:54;;;;;;;81.90;32.10;;;;;;;6.06;100.00;101246.44;110429;1268;22227;-58
2023/04/10 04:46:25;;;;;;;78.00;33.60;;;;;;;6.05;100.00;101245.66;110416;1265;22276;-60
2023/04/10 04:48:56;;;;;;;79.10;31.00;;;;;;;6.04;100.00;101243.94;110371;1269;22355;-60
2023/04/10 04:51:27;;;;;;;75.80;34.00;;;;;;;6.05;100.00;101246.45;110396;1268;23107;-59
2023/04/10 04:53:57;;;;;;;67.20;30.10;;;;;;;6.07;100.00;101242.85;110353;1268;22323;-59
2023/04/10 04:56:28;;;;;;;71.80;33.30;;;;;;;6.09;100.00;101251.61;110399;1268;22169;-59
2023/04/10 04:58:59;;;;;;;65.80;30.80;;;;;;;6.12;100.00;101257.17;110407;1268;22360;-58
2023/04/10 05:01:30;;;;;;;65.90;30.50;;;;;;;6.17;100.00;101263.66;110378;1262;22294;-60
2023/04/10 05:04:01;;;;;;;72.10;31.20;;;;;;;6.21;100.00;101267.23;110370;1269;23291;-59
2023/04/10 05:06:32;;;;;;;67.70;30.40;;;;;;;6.25;100.00;101271.90;110415;1268;22350;-61
2023/04/10 05:09:03;;;;;;;64.70;31.70;;;;;;;6.29;100.00;101275.55;110401;1260;23114;-59
2023/04/10 05:11:33;;;;;;;69.10;30.40;;;;;;;6.33;100.00;101280.48;110386;1268;22423;-60
2023/04/10 05:14:04;;;;;;;70.80;36.70;;;;;;;6.33;100.00;101286.10;110392;1271;22888;-59
2023/04/10 05:16:35;;;;;;;103.00;59.10;;;;;;;6.37;100.00;101294.42;110371;1269;22973;-59
2023/04/10 05:19:06;;;;;;;108.00;51.40;;;;;;;6.39;100.00;101297.30;110413;1265;22206;-60
2023/04/10 05:21:37;;;;;;;86.30;45.20;;;;;;;6.41;100.00;101295.05;110390;1268;22357;-58
2023/04/10 05:24:08;;;;;;;77.40;40.10;;;;;;;6.42;100.00;101292.65;110363;1268;22339;-58
2023/04/10 05:26:40;;;;;;;74.20;33.60;;;;;;;6.44;100.00;101292.86;110438;1260;22219;-60
2023/04/10 05:29:11;;;;;;;67.00;31.20;;;;;;;6.45;100.00;101293.32;110416;1262;22242;-60
2023/04/10 05:31:42;;;;;;;67.40;32.60;;;;;;;6.47;100.00;101298.92;110347;1268;23338;-58
2023/04/10 05:34:12;;;;;;;64.30;32.10;;;;;;;6.47;100.00;101303.81;110395;1268;22192;-59
2023/04/10 05:36:43;;;;;;;65.30;30.80;;;;;;;6.50;100.00;101304.73;110404;1268;22335;-60
2023/04/10 05:39:15;;;;;;;62.70;30.10;;;;;;;6.51;100.00;101307.23;110398;1268;23112;-58
2023/04/10 05:41:46;;;;;;;68.70;28.90;;;;;;;6.51;100.00;101308.48;110386;1275;22201;-60
2023/04/10 05:44:17;;;;;;;70.00;30.10;;;;;;;6.48;100.00;101305.08;110406;1268;22452;-59
2023/04/10 05:46:48;;;;;;;63.80;27.60;;;;;;;6.40;100.00;101299.59;110416;1265;22287;-60
2023/04/10 05:49:19;;;;;;;70.60;27.20;;;;;;;6.37;100.00;101295.38;110432;1268;22206;-59
2023/04/10 05:51:50;;;;;;;78.20;29.70;;;;;;;6.33;100.00;101291.17;110363;1268;22198;-60
2023/04/10 05:54:21;;;;;;;68.80;28.80;;;;;;;6.29;100.00;101289.89;110387;1273;22187;-58
2023/04/10 05:56:52;;;;;;;56.80;25.30;;;;;;;6.26;100.00;101293.66;110424;1275;22190;-59
2023/04/10 05:59:23;;;;;;;68.30;26.50;;;;;;;6.23;100.00;101293.41;110425;1268;23091;-59
2023/04/10 06:01:54;;;;;;;65.10;27.60;;;;;;;6.19;100.00;101294.19;110383;1262;22148;-60
2023/04/10 06:04:25;;;;;;;55.80;24.80;;;;;;;6.16;100.00;101290.22;110364;1265;22510;-64
2023/04/10 06:06:57;;;;;;;65.00;26.30;;;;;;;6.14;100.00;101293.42;110377;1265;22975;-58
2023/04/10 06:09:27;;;;;;;67.60;27.80;;;;;;;6.13;100.00;101296.37;110417;1268;22389;-59
2023/04/10 06:11:58;;;;;;;67.60;27.40;;;;;;;6.12;100.00;101300.27;110360;1268;22370;-61
2023/04/10 06:14:29;;;;;;;65.20;29.40;;;;;;;6.10;100.00;101300.30;110450;1268;22253;-59
2023/04/10 06:17:00;;;;;;;62.30;25.60;;;;;;;6.10;100.00;101309.81;110409;1268;22149;-58
2023/04/10 06:19:31;;;;;;;65.40;26.10;;;;;;;6.07;100.00;101314.55;106239;1268;5436904;-61
2023/04/10 06:22:02;;;;;;;62.50;25.90;;;;;;;6.06;100.00;101312.67;110412;1265;22378;-60
2023/04/10 06:24:33;;;;;;;62.30;25.80;;;;;;;6.06;100.00;101305.52;110409;1268;22304;-60
2023/04/10 06:27:04;;;;;;;64.10;28.60;;;;;;;6.07;100.00;101315.16;110401;1260;22351;-60
2023/04/10 06:29:35;;;;;;;69.30;28.70;;;;;;;6.07;100.00;101317.55;110421;1268;22320;-59
2023/04/10 06:32:06;;;;;;;71.50;29.90;;;;;;;6.04;100.00;101323.67;110400;1261;22272;-61
2023/04/10 06:34:37;;;;;;;73.50;31.00;;;;;;;6.03;100.00;101324.17;110393;1268;22903;-59
2023/04/10 06:37:08;;;;;;;71.30;30.30;;;;;;;6.07;100.00;101326.02;110404;1268;22217;-60
2023/04/10 06:39:39;;;;;;;74.30;34.00;;;;;;;6.10;100.00;101323.99;110404;1265;22367;-60
2023/04/10 06:42:10;;;;;;;70.90;32.60;;;;;;;6.13;100.00;101332.34;110377;1269;22373;-61
2023/04/10 06:44:40;;;;;;;70.70;33.40;;;;;;;6.18;100.00;101338.50;110401;1268;22318;-59
2023/04/10 06:47:12;;;;;;;70.50;31.20;;;;;;;6.23;100.00;101337.77;110366;1269;22223;-59
2023/04/10 06:49:42;;;;;;;69.40;31.30;;;;;;;6.29;100.00;101339.41;110413;1268;22314;-59
2023/04/10 06:52:14;;;;;;;73.40;35.00;;;;;;;6.35;100.00;101346.77;110372;1269;22227;-60
2023/04/10 06:54:45;;;;;;;72.80;33.80;;;;;;;6.40;100.00;101341.82;110421;1268;22672;-59
2023/04/10 06:57:16;;;;;;;62.20;29.60;;;;;;;6.46;100.00;101333.17;110409;1269;22180;-58
2023/04/10 06:59:47;;;;;;;66.30;30.20;;;;;;;6.49;100.00;101326.36;110427;1268;22402;-59
2023/04/10 07:02:17;;;;;;;64.30;31.00;;;;;;;6.55;100.00;101329.11;110350;1268;22393;-61
2023/04/10 07:04:48;;;;;;;64.00;30.10;;;;;;;6.63;100.00;101332.12;110388;1268;22374;-59
2023/04/10 07:07:19;;;;;;;67.90;31.90;;;;;;;6.71;100.00;101332.92;110402;1265;22229;-60
2023/04/10 07:09:50;;;;;;;64.90;32.00;;;;;;;6.79;100.00;101334.11;110442;1268;22436;-58
2023/04/10 07:12:21;;;;;;;66.20;31.70;;;;;;;6.84;100.00;101332.73;110360;1268;22358;-59
2023/04/10 07:14:52;;;;;;;70.00;32.60;;;;;;;6.89;100.00;101333.11;110426;1269;22344;-59
2023/04/10 07:17:24;;;;;;;68.30;32.50;;;;;;;6.92;100.00;101331.55;110374;1268;22331;-61
2023/04/10 07:19:55;;;;;;;64.70;29.60;;;;;;;6.95;100.00;101336.02;110335;1268;22320;-61
2023/04/10 07:22:26;;;;;;;64.90;30.10;;;;;;;7.00;100.00;101336.39;110304;1268;22192;-59
2023/04/10 07:24:57;;;;;;;61.70;31.10;;;;;;;7.05;100.00;101334.12;110373;1265;22320;-60
2023/04/10 07:27:29;;;;;;;60.10;31.40;;;;;;;7.12;100.00;101328.27;110390;1262;22364;-59
2023/04/10 07:30:00;;;;;;;70.80;31.60;;;;;;;7.17;100.00;101327.45;107656;1269;25326;-57
2023/04/10 07:32:33;;;;;;;60.70;31.60;;;;;;;7.21;100.00;101328.48;106384;1269;22525;-57
2023/04/10 07:35:05;;;;;;;68.40;31.80;;;;;;;7.26;100.00;101328.69;110375;1268;22971;-56
2023/04/10 07:37:38;;;;;;;68.00;32.70;;;;;;;7.32;100.00;101324.88;110395;1265;22400;-58
2023/04/10 07:40:12;;;;;;;63.50;31.10;;;;;;;7.39;100.00;101324.81;110371;1268;22254;-57
2023/04/10 07:42:43;;;;;;;64.30;32.80;;;;;;;7.45;100.00;101328.59;110389;1268;23041;-56
2023/04/10 07:45:14;;;;;;;64.80;33.60;;;;;;;7.50;100.00;101325.51;110344;1269;22158;-58
2023/04/10 07:47:45;;;;;;;60.40;31.40;;;;;;;7.56;100.00;101327.04;110415;1268;22881;-58
2023/04/10 07:50:16;;;;;;;67.10;35.20;;;;;;;7.58;100.00;101323.51;110368;1270;22431;-57
2023/04/10 07:52:46;;;;;;;58.40;28.60;;;;;;;7.64;100.00;101318.45;110419;1268;22221;-56
2023/04/10 07:55:18;;;;;;;60.80;30.60;;;;;;;7.68;100.00;101314.14;110446;1268;23185;-57
2023/04/10 07:57:51;;;;;;;58.90;28.10;;;;;;;7.70;100.00;101315.20;109633;1265;22522;-56
2023/04/10 08:00:22;;;;;;;56.90;27.50;;;;;;;7.71;100.00;101320.24;110406;1268;23089;-58
2023/04/10 08:02:53;;;;;;;56.40;28.20;;;;;;;7.71;100.00;101319.70;110408;1268;22179;-58
2023/04/10 08:05:24;;;;;;;66.20;31.90;;;;;;;7.70;100.00;101321.14;110407;1269;23247;-58
2023/04/10 08:07:55;;;;;;;65.60;31.50;;;;;;;7.74;100.00;101323.29;110418;1262;22372;-59
2023/04/10 08:10:26;;;;;;;67.70;31.20;;;;;;;7.78;100.00;101327.16;110421;1269;22938;-58
2023/04/10 08:12:56;;;;;;;60.40;28.40;;;;;;;7.79;100.00;101328.09;110403;1262;22236;-59
2023/04/10 08:15:27;;;;;;;65.30;32.10;;;;;;;7.79;100.00;101327.92;110433;1265;22892;-59
2023/04/10 08:17:58;;;;;;;61.10;29.60;;;;;;;7.82;100.00;101323.73;110425;1261;22652;-58
2023/04/10 08:20:35;;;;;;;65.80;29.20;;;;;;;7.83;100.00;101322.52;110430;1269;22954;-58
2023/04/10 08:23:07;;;;;;;64.40;29.60;;;;;;;7.86;100.00;101327.69;110284;1270;22209;-62
2023/04/10 08:25:38;;;;;;;58.60;29.40;;;;;;;7.87;100.00;101326.79;110389;1268;22193;-61
2023/04/10 08:28:09;;;;;;;62.90;30.30;;;;;;;7.89;100.00;101326.02;110415;1265;22256;-62
2023/04/10 08:30:40;;;;;;;64.50;30.60;;;;;;;7.88;100.00;101322.05;110358;1268;22267;-58
2023/04/10 08:33:11;;;;;;;62.40;30.20;;;;;;;7.95;100.00;101320.63;108664;1269;25440;-58
2023/04/10 08:35:42;;;;;;;63.80;31.40;;;;;;;7.99;100.00;101317.73;106421;1269;22566;-58
2023/04/10 08:38:13;;;;;;;60.90;29.10;;;;;;;8.04;100.00;101317.31;106431;1268;24360;-57
2023/04/10 08:40:44;;;;;;;63.30;30.50;;;;;;;8.06;100.00;101319.08;110435;1262;22295;-58
2023/04/10 08:43:15;;;;;;;59.30;31.30;;;;;;;8.10;100.00;101311.65;110399;1267;22313;-57
2023/04/10 08:45:46;;;;;;;56.60;29.20;;;;;;;8.18;100.00;101312.01;110381;1268;23232;-57
2023/04/10 08:48:18;;;;;;;65.70;30.10;;;;;;;8.26;100.00;101313.72;110386;1262;22196;-57
2023/04/10 08:50:51;;;;;;;54.20;28.60;;;;;;;8.34;100.00;101318.53;110387;1275;22193;-58
2023/04/10 08:53:28;;;;;;;55.80;27.50;;;;;;;8.41;100.00;101317.96;110459;1262;23083;-57
2023/04/10 08:56:03;;;;;;;59.00;30.10;;;;;;;8.47;100.00;101319.71;110445;1265;23007;-58
2023/04/10 08:58:35;;;;;;;58.50;29.00;;;;;;;8.51;100.00;101319.25;110407;1269;22188;-57
2023/04/10 09:01:07;;;;;;;50.80;26.30;;;;;;;8.58;100.00;101319.80;110414;1263;22255;-63
2023/04/10 09:03:38;;;;;;;54.30;27.90;;;;;;;8.61;100.00;101318.77;110441;1268;22421;-58
2023/04/10 09:06:10;;;;;;;62.00;29.90;;;;;;;8.61;100.00;101318.27;110408;1268;22410;-56
2023/04/10 09:08:41;;;;;;;65.60;30.20;;;;;;;8.62;100.00;101314.48;110445;1276;22902;-57
2023/04/10 09:11:12;;;;;;;62.00;30.20;;;;;;;8.66;100.00;101310.91;110379;1268;22161;-57
2023/04/10 09:13:45;;;;;;;60.90;30.30;;;;;;;8.71;100.00;101306.45;110418;1260;22168;-56
2023/04/10 09:16:16;;;;;;;60.00;29.50;;;;;;;8.79;100.00;101302.80;110420;1262;22224;-57
2023/04/10 09:18:51;;;;;;;57.60;27.20;;;;;;;8.90;100.00;101298.51;110458;1268;23012;-58
2023/04/10 09:21:22;;;;;;;59.10;29.30;;;;;;;9.00;100.00;101293.84;110441;1268;22398;-56
2023/04/10 09:24:13;;;;;;;59.30;30.40;;;;;;;9.08;100.00;101291.70;110410;1269;22329;-58
2023/04/10 09:26:44;;;;;;;60.80;29.00;;;;;;;9.17;100.00;101286.80;110456;1272;22404;-58
2023/04/10 09:29:15;;;;;;;65.40;31.10;;;;;;;9.26;100.00;101287.56;110410;1265;22258;-56
2023/04/10 09:31:47;;;;;;;59.60;30.60;;;;;;;9.36;100.00;101281.28;110396;1268;22279;-58
2023/04/10 09:34:20;;;;;;;55.10;28.70;;;;;;;9.45;100.00;101278.67;110411;1268;22906;-55
2023/04/10 09:36:57;;;;;;;61.30;30.30;;;;;;;9.55;100.00;101277.39;110397;1262;22443;-57
2023/04/10 09:39:39;;;;;;;62.60;30.20;;;;;;;9.64;100.00;101273.05;110422;1265;22303;-57
2023/04/10 09:42:11;;;;;;;57.20;30.70;;;;;;;9.72;100.00;101276.45;110388;1268;22368;-56
2023/04/10 09:44:42;;;;;;;58.70;29.30;;;;;;;9.82;100.00;101270.13;110449;1265;22368;-56
2023/04/10 09:47:21;;;;;;;69.00;32.30;;;;;;;9.88;100.00;101269.70;110388;1265;22219;-57
2023/04/10 09:49:53;;;;;;;64.60;31.00;;;;;;;9.97;100.00;101268.05;106591;1252;25370;-57
2023/04/10 09:52:25;;;;;;;62.70;30.80;;;;;;;10.03;99.94;101264.23;106427;1268;22640;-56
2023/04/10 09:54:59;;;;;;;61.60;30.00;;;;;;;10.11;100.00;101261.75;110314;1268;22221;-57
2023/04/10 09:57:32;;;;;;;56.60;28.40;;;;;;;10.20;99.87;101256.52;106432;1262;22605;-57
2023/04/10 10:00:05;;;;;;;59.70;28.10;;;;;;;10.23;99.16;101251.45;106477;1262;24426;-57
2023/04/10 10:02:38;;;;;;;59.10;28.70;;;;;;;10.24;98.95;101244.17;110410;1269;22422;-58
2023/04/10 10:05:11;;;;;;;56.30;28.60;;;;;;;10.30;99.16;101243.33;110429;1269;22193;-62
2023/04/10 10:07:42;;;;;;;57.10;28.10;;;;;;;10.30;97.97;101241.00;110411;1268;22222;-62
2023/04/10 10:10:13;;;;;;;52.50;25.50;;;;;;;10.30;97.99;101236.30;110400;1268;22937;-58
2023/04/10 10:12:49;;;;;;;51.30;27.90;;;;;;;10.32;97.79;101230.95;110386;1273;22259;-58
2023/04/10 10:15:31;;;;;;;53.60;26.70;;;;;;;10.41;98.58;101228.39;110332;1269;22178;-57
2023/04/10 10:18:10;;;;;;;60.80;29.00;;;;;;;10.52;98.60;101224.31;110418;1269;22341;-57
2023/04/10 10:20:46;;;;;;;57.60;29.00;;;;;;;10.62;98.33;101222.67;110421;1269;22171;-60
2023/04/10 10:23:17;;;;;;;52.50;27.60;;;;;;;10.69;97.98;101221.14;110415;1265;22280;-58
2023/04/10 10:25:51;;;;;;;56.20;29.60;;;;;;;10.68;97.26;101218.40;110423;1268;22971;-57
2023/04/10 10:28:24;;;;;;;59.80;30.10;;;;;;;10.69;97.12;101216.61;110459;1268;23458;-59
2023/04/10 10:30:55;;;;;;;72.60;34.80;;;;;;;10.69;97.10;101208.05;110440;1266;22322;-61
2023/04/10 10:33:27;;;;;;;68.10;32.80;;;;;;;10.70;97.37;101209.05;110451;1262;22177;-59
2023/04/10 10:36:00;;;;;;;62.30;31.20;;;;;;;10.73;97.66;101208.14;110434;1269;22296;-59
2023/04/10 10:38:32;;;;;;;62.30;31.70;;;;;;;10.76;97.34;101206.10;110390;1271;22316;-59
2023/04/10 10:41:10;;;;;;;60.20;31.20;;;;;;;10.78;97.31;101208.50;110358;1265;23511;-58
2023/04/10 10:43:53;;;;;;;63.60;32.90;;;;;;;10.82;97.36;101209.48;110390;1268;22142;-59
2023/04/10 10:46:34;;;;;;;66.50;31.20;;;;;;;10.87;97.52;101209.13;110400;1274;22263;-58
2023/04/10 10:49:05;;;;;;;68.10;31.70;;;;;;;10.93;97.39;101202.80;110382;1273;22243;-62
2023/04/10 10:51:50;;;;;;;61.90;30.40;;;;;;;10.99;96.98;101202.96;110448;1269;23364;-58
2023/04/10 10:54:35;;;;;;;51.30;26.10;;;;;;;11.05;96.07;101192.59;110464;1276;22815;-59
2023/04/10 10:57:25;;;;;;;53.50;27.50;;;;;;;11.07;95.16;101190.86;110412;1263;22814;-58
2023/04/10 10:59:57;;;;;;;58.90;29.30;;;;;;;11.08;95.38;101190.55;110441;1269;22202;-59
2023/04/10 11:02:28;;;;;;;58.20;29.30;;;;;;;11.17;95.66;101193.06;110438;1276;22250;-58
2023/04/10 11:04:59;;;;;;;52.20;26.50;;;;;;;11.24;95.39;101190.95;110437;1266;22268;-59
2023/04/10 11:08:09;;;;;;;55.70;29.30;;;;;;;11.30;95.33;101184.30;110425;1273;22311;-59
2023/04/10 11:11:04;;;;;;;50.90;27.30;;;;;;;11.38;94.95;101185.15;110418;1265;22324;-58
2023/04/10 11:13:37;;;;;;;57.40;28.30;;;;;;;11.43;94.69;101182.93;110374;1269;22957;-58
2023/04/10 11:16:10;;;;;;;49.60;26.10;;;;;;;11.46;94.65;101176.23;110450;1273;22309;-58
2023/04/10 11:19:03;;;;;;;47.50;23.90;;;;;;;11.48;93.98;101175.20;110415;1268;22969;-59
2023/04/10 11:21:34;;;;;;;52.40;26.10;;;;;;;11.49;94.16;101168.94;110472;1269;22310;-58
2023/04/10 11:24:06;;;;;;;50.40;24.50;;;;;;;11.48;94.27;101162.56;110472;1263;22347;-58
2023/04/10 11:26:41;;;;;;;46.20;24.10;;;;;;;11.51;93.91;101157.50;110450;1276;22314;-59
2023/04/10 11:29:37;;;;;;;47.60;24.20;;;;;;;11.53;93.74;101155.17;110397;1268;22153;-58